Vidfoss — V2QK4 — position and weather

sailwx.info

Track history (hours):
 
Tides and Currents Weather Stations Pressure Air Temp Water Temp Dewpoint Dewpoint Depression Visibility Wind Speed Wind Dir Waves Ship Positions

Vidfoss

Last reported at 2015-Mar-31 23:33 UTC. Time now 2015-Mar-31 23:54 UTC.
Position N 69°38' E 018°57'.

Length 93 m; draft 4.4 m.

Type: Cargo ship. MMSI: 305846000.

Date/timePositionNaut miles runAvg speedWind from/ knotsBaromVisibWave heightAir tempDewpointWater temp
2015-Mar-31 23:33N 69°38' E 018°57'0 0.0
2015-Mar-31 22:31N 69°38' E 018°57'0 0.0
2015-Mar-31 21:31N 69°38' E 018°57'0 0.0
2015-Mar-31 20:26N 69°38' E 018°57'0 0.0
2015-Mar-31 19:27N 69°38' E 018°57'0 0.0
2015-Mar-31 18:33N 69°38' E 018°57'0 0.0
2015-Mar-31 17:31N 69°38' E 018°57'0 0.0
2015-Mar-31 16:32N 69°38' E 018°57'0 0.0
2015-Mar-31 15:32N 69°38' E 018°57'0 0.0
2015-Mar-31 14:33N 69°38' E 018°57'0 0.0
2015-Mar-31 13:31N 69°38' E 018°57'0 0.0
2015-Mar-31 12:32N 69°38' E 018°57'0 0.0
2015-Mar-31 11:32N 69°38' E 018°57'0 0.0
2015-Mar-31 10:33N 69°38' E 018°57'0 0.0
2015-Mar-31 09:33N 69°38' E 018°57'0 0.0
2015-Mar-31 08:31N 69°38' E 018°57'0 0.0
2015-Mar-31 07:29N 69°38' E 018°57'0 0.0
2015-Mar-31 06:32N 69°38' E 018°57'0 0.0
2015-Mar-31 05:33N 69°38' E 018°57'0 0.0
2015-Mar-31 04:31N 69°38' E 018°57'0 0.0
2015-Mar-31 03:32N 69°38' E 018°57'0 0.0
2015-Mar-31 02:32N 69°38' E 018°57'0 0.0
2015-Mar-31 01:33N 69°38' E 018°57'0 0.0
2015-Mar-31 00:34N 69°38' E 018°57'0 0.0
2015-Mar-30 23:31N 69°38' E 018°57'0 0.0
2015-Mar-30 22:32N 69°38' E 018°57'3 3.2
2015-Mar-30 21:33N 69°41' E 018°59'0 0.0
2015-Mar-30 20:33N 69°41' E 018°60'0 0.0
2015-Mar-30 19:33N 69°41' E 018°60'0 0.0
2015-Mar-30 18:33N 69°41' E 018°60'0 0.0
2015-Mar-30 17:33N 69°41' E 018°60'14010.8
2015-Mar-30 04:33N 67°56' E 014°41'1111.5
2015-Mar-30 03:33N 67°47' E 014°22'1211.3
2015-Mar-30 02:32N 67°36' E 014°20'1111.8
2015-Mar-30 01:34N 67°25' E 014°26'1211.6
2015-Mar-30 00:34N 67°15' E 014°11'1211.9
2015-Mar-29 23:32N 67°04' E 013°54'1111.5
2015-Mar-29 22:33N 66°58' E 013°31'3610.9
2015-Mar-29 19:18N 66°25' E 012°59'85 3.3
2015-Mar-28 17:05N 65°05' E 011°46'911.2
2015-Mar-28 16:18N 64°58' E 011°33'911.9
2015-Mar-28 15:33N 64°52' E 011°17'8211.1
2015-Mar-28 08:11N 63°48' E 009°20'812.9
2015-Mar-28 07:33N 63°40' E 009°16'258 7.1
2015-Mar-26 19:05N 59°45' E 005°31'1811.9
2015-Mar-26 17:33N 59°29' E 005°13'1611.8
2015-Mar-26 16:14N 59°14' E 005°21'812.5
2015-Mar-26 15:33N 59°06' E 005°21'1212.4
2015-Mar-26 14:33N 58°54' E 005°15'  
2015-Mar-23 20:16N 52°31' E 003°45'2411.1
2015-Mar-23 18:07N 52°29' E 004°24'611.2
2015-Mar-23 17:33N 52°28' E 004°34'2 2.1
2015-Mar-23 16:33N 52°28' E 004°38'1 1.3
2015-Mar-23 15:33N 52°28' E 004°40'0 0.0
2015-Mar-23 14:33N 52°28' E 004°40'0 0.0
2015-Mar-23 13:33N 52°28' E 004°40'0 0.0
2015-Mar-23 12:33N 52°28' E 004°40'0 0.0
2015-Mar-23 11:33N 52°28' E 004°40'0 0.0
2015-Mar-23 10:33N 52°28' E 004°40'0 0.0
2015-Mar-23 09:33N 52°28' E 004°40'0 0.0
2015-Mar-23 08:33N 52°28' E 004°40'0 0.0
2015-Mar-23 07:33N 52°28' E 004°40'0 0.0
2015-Mar-23 06:33N 52°28' E 004°40'0 0.0
2015-Mar-23 05:33N 52°28' E 004°40'0 0.0
2015-Mar-23 04:33N 52°28' E 004°40'2 2.1
2015-Mar-23 03:33N 52°28' E 004°36'6 5.4
2015-Mar-23 02:27N 52°31' E 004°28'1212.4
2015-Mar-23 01:27N 52°43' E 004°30'9012.2
2015-Mar-22 18:05N 54°12' E 004°56'712.6
2015-Mar-22 17:30N 54°19' E 004°57'  
Track history (hours):
 
Tides and Currents Weather Stations Pressure Air Temp Water Temp Dewpoint Dewpoint Depression Visibility Wind Speed Wind Dir Waves Ship Positions

Vidfoss

Last reported at 2015-Mar-31 23:33 UTC. Time now 2015-Mar-31 23:54 UTC.
Position N 69°38' E 018°57'.

Length 93 m; draft 4.4 m.

Type: Cargo ship. MMSI: 305846000.

Date/timePositionNaut miles runAvg speedWind from/ knotsBaromVisibWave heightAir tempDewpointWater temp
2015-Mar-31 23:33N 69°38' E 018°57'0 0.0
2015-Mar-31 22:31N 69°38' E 018°57'0 0.0
2015-Mar-31 21:31N 69°38' E 018°57'0 0.0
2015-Mar-31 20:26N 69°38' E 018°57'0 0.0
2015-Mar-31 19:27N 69°38' E 018°57'0 0.0
2015-Mar-31 18:33N 69°38' E 018°57'0 0.0
2015-Mar-31 17:31N 69°38' E 018°57'0 0.0
2015-Mar-31 16:32N 69°38' E 018°57'0 0.0
2015-Mar-31 15:32N 69°38' E 018°57'0 0.0
2015-Mar-31 14:33N 69°38' E 018°57'0 0.0
2015-Mar-31 13:31N 69°38' E 018°57'0 0.0
2015-Mar-31 12:32N 69°38' E 018°57'0 0.0
2015-Mar-31 11:32N 69°38' E 018°57'0 0.0
2015-Mar-31 10:33N 69°38' E 018°57'0 0.0
2015-Mar-31 09:33N 69°38' E 018°57'0 0.0
2015-Mar-31 08:31N 69°38' E 018°57'0 0.0
2015-Mar-31 07:29N 69°38' E 018°57'0 0.0
2015-Mar-31 06:32N 69°38' E 018°57'0 0.0
2015-Mar-31 05:33N 69°38' E 018°57'0 0.0
2015-Mar-31 04:31N 69°38' E 018°57'0 0.0
2015-Mar-31 03:32N 69°38' E 018°57'0 0.0
2015-Mar-31 02:32N 69°38' E 018°57'0 0.0
2015-Mar-31 01:33N 69°38' E 018°57'0 0.0
2015-Mar-31 00:34N 69°38' E 018°57'0 0.0
2015-Mar-30 23:31N 69°38' E 018°57'0 0.0
2015-Mar-30 22:32N 69°38' E 018°57'3 3.2
2015-Mar-30 21:33N 69°41' E 018°59'0 0.0
2015-Mar-30 20:33N 69°41' E 018°60'0 0.0
2015-Mar-30 19:33N 69°41' E 018°60'0 0.0
2015-Mar-30 18:33N 69°41' E 018°60'0 0.0
2015-Mar-30 17:33N 69°41' E 018°60'14010.8
2015-Mar-30 04:33N 67°56' E 014°41'1111.5
2015-Mar-30 03:33N 67°47' E 014°22'1211.3
2015-Mar-30 02:32N 67°36' E 014°20'1111.8
2015-Mar-30 01:34N 67°25' E 014°26'1211.6
2015-Mar-30 00:34N 67°15' E 014°11'1211.9
2015-Mar-29 23:32N 67°04' E 013°54'1111.5
2015-Mar-29 22:33N 66°58' E 013°31'3610.9
2015-Mar-29 19:18N 66°25' E 012°59'85 3.3
2015-Mar-28 17:05N 65°05' E 011°46'911.2
2015-Mar-28 16:18N 64°58' E 011°33'911.9
2015-Mar-28 15:33N 64°52' E 011°17'8211.1
2015-Mar-28 08:11N 63°48' E 009°20'812.9
2015-Mar-28 07:33N 63°40' E 009°16'258 7.1
2015-Mar-26 19:05N 59°45' E 005°31'1811.9
2015-Mar-26 17:33N 59°29' E 005°13'1611.8
2015-Mar-26 16:14N 59°14' E 005°21'812.5
2015-Mar-26 15:33N 59°06' E 005°21'1212.4
2015-Mar-26 14:33N 58°54' E 005°15'  
2015-Mar-23 20:16N 52°31' E 003°45'2411.1
2015-Mar-23 18:07N 52°29' E 004°24'611.2
2015-Mar-23 17:33N 52°28' E 004°34'2 2.1
2015-Mar-23 16:33N 52°28' E 004°38'1 1.3
2015-Mar-23 15:33N 52°28' E 004°40'0 0.0
2015-Mar-23 14:33N 52°28' E 004°40'0 0.0
2015-Mar-23 13:33N 52°28' E 004°40'0 0.0
2015-Mar-23 12:33N 52°28' E 004°40'0 0.0
2015-Mar-23 11:33N 52°28' E 004°40'0 0.0
2015-Mar-23 10:33N 52°28' E 004°40'0 0.0
2015-Mar-23 09:33N 52°28' E 004°40'0 0.0
2015-Mar-23 08:33N 52°28' E 004°40'0 0.0
2015-Mar-23 07:33N 52°28' E 004°40'0 0.0
2015-Mar-23 06:33N 52°28' E 004°40'0 0.0
2015-Mar-23 05:33N 52°28' E 004°40'0 0.0
2015-Mar-23 04:33N 52°28' E 004°40'2 2.1
2015-Mar-23 03:33N 52°28' E 004°36'6 5.4
2015-Mar-23 02:27N 52°31' E 004°28'1212.4
2015-Mar-23 01:27N 52°43' E 004°30'9012.2
2015-Mar-22 18:05N 54°12' E 004°56'712.6
2015-Mar-22 17:30N 54°19' E 004°57'  

Dump ship's entire track history